sensor_id;sensor_type;location;lat;lon;timestamp;P1;durP1;ratioP1;P2;durP2;ratioP2
20118;SDS011;10220;42.716;23.306;2023-03-23T00:01:09;19.23;;;10.93;;
20118;SDS011;10220;42.716;23.306;2023-03-23T00:03:37;15.73;;;10.20;;
20118;SDS011;10220;42.716;23.306;2023-03-23T00:06:03;17.30;;;10.57;;
20118;SDS011;10220;42.716;23.306;2023-03-23T00:08:35;16.40;;;10.87;;
20118;SDS011;10220;42.716;23.306;2023-03-23T00:11:03;16.70;;;10.20;;
20118;SDS011;10220;42.716;23.306;2023-03-23T00:13:30;16.20;;;10.53;;
20118;SDS011;10220;42.716;23.306;2023-03-23T00:15:56;20.17;;;9.70;;
20118;SDS011;10220;42.716;23.306;2023-03-23T00:18:24;21.00;;;10.73;;
20118;SDS011;10220;42.716;23.306;2023-03-23T00:20:54;17.60;;;10.33;;
20118;SDS011;10220;42.716;23.306;2023-03-23T00:23:22;21.33;;;10.20;;
20118;SDS011;10220;42.716;23.306;2023-03-23T00:25:53;14.97;;;9.53;;
20118;SDS011;10220;42.716;23.306;2023-03-23T00:28:22;17.63;;;11.47;;
20118;SDS011;10220;42.716;23.306;2023-03-23T00:30:56;18.47;;;10.60;;
20118;SDS011;10220;42.716;23.306;2023-03-23T00:33:24;23.53;;;14.33;;
20118;SDS011;10220;42.716;23.306;2023-03-23T00:35:51;26.23;;;13.20;;
20118;SDS011;10220;42.716;23.306;2023-03-23T00:38:18;16.50;;;11.73;;
20118;SDS011;10220;42.716;23.306;2023-03-23T00:40:44;22.07;;;12.13;;
20118;SDS011;10220;42.716;23.306;2023-03-23T00:43:12;15.57;;;9.73;;
20118;SDS011;10220;42.716;23.306;2023-03-23T00:45:41;24.00;;;11.57;;
20118;SDS011;10220;42.716;23.306;2023-03-23T00:48:09;22.73;;;11.87;;
20118;SDS011;10220;42.716;23.306;2023-03-23T00:50:38;21.33;;;11.30;;
20118;SDS011;10220;42.716;23.306;2023-03-23T00:53:04;24.00;;;13.03;;
20118;SDS011;10220;42.716;23.306;2023-03-23T00:55:30;21.13;;;10.97;;
20118;SDS011;10220;42.716;23.306;2023-03-23T00:57:56;23.23;;;11.87;;
20118;SDS011;10220;42.716;23.306;2023-03-23T01:00:22;15.67;;;9.43;;
20118;SDS011;10220;42.716;23.306;2023-03-23T01:02:48;16.33;;;8.83;;
20118;SDS011;10220;42.716;23.306;2023-03-23T01:05:20;16.73;;;10.00;;
20118;SDS011;10220;42.716;23.306;2023-03-23T01:07:45;16.17;;;9.43;;
20118;SDS011;10220;42.716;23.306;2023-03-23T01:10:12;18.27;;;11.00;;
20118;SDS011;10220;42.716;23.306;2023-03-23T01:12:41;15.40;;;9.57;;
20118;SDS011;10220;42.716;23.306;2023-03-23T01:15:08;20.00;;;10.87;;
20118;SDS011;10220;42.716;23.306;2023-03-23T01:17:35;15.00;;;9.23;;
20118;SDS011;10220;42.716;23.306;2023-03-23T01:20:00;17.37;;;10.03;;
20118;SDS011;10220;42.716;23.306;2023-03-23T01:22:25;17.97;;;10.17;;
20118;SDS011;10220;42.716;23.306;2023-03-23T01:24:51;16.60;;;10.47;;
20118;SDS011;10220;42.716;23.306;2023-03-23T01:27:16;17.70;;;11.20;;
20118;SDS011;10220;42.716;23.306;2023-03-23T01:29:42;14.50;;;9.70;;
20118;SDS011;10220;42.716;23.306;2023-03-23T01:32:07;16.23;;;10.20;;
20118;SDS011;10220;42.716;23.306;2023-03-23T01:34:32;16.40;;;10.47;;
20118;SDS011;10220;42.716;23.306;2023-03-23T01:36:58;17.50;;;9.20;;
20118;SDS011;10220;42.716;23.306;2023-03-23T01:39:24;16.93;;;11.20;;
20118;SDS011;10220;42.716;23.306;2023-03-23T01:41:49;18.93;;;9.93;;
20118;SDS011;10220;42.716;23.306;2023-03-23T01:46:40;13.23;;;9.47;;
20118;SDS011;10220;42.716;23.306;2023-03-23T01:49:07;19.27;;;10.43;;
20118;SDS011;10220;42.716;23.306;2023-03-23T01:51:37;19.43;;;10.63;;
20118;SDS011;10220;42.716;23.306;2023-03-23T01:54:09;12.90;;;8.57;;
20118;SDS011;10220;42.716;23.306;2023-03-23T01:56:44;15.60;;;10.27;;
20118;SDS011;10220;42.716;23.306;2023-03-23T01:59:13;13.17;;;8.57;;
20118;SDS011;10220;42.716;23.306;2023-03-23T02:01:40;17.07;;;10.40;;
20118;SDS011;10220;42.716;23.306;2023-03-23T02:04:09;16.47;;;9.87;;
20118;SDS011;10220;42.716;23.306;2023-03-23T02:06:37;20.23;;;10.30;;
20118;SDS011;10220;42.716;23.306;2023-03-23T02:09:03;21.23;;;12.10;;
20118;SDS011;10220;42.716;23.306;2023-03-23T02:11:31;20.50;;;10.60;;
20118;SDS011;10220;42.716;23.306;2023-03-23T02:13:57;18.90;;;9.73;;
20118;SDS011;10220;42.716;23.306;2023-03-23T02:16:34;19.03;;;10.50;;
20118;SDS011;10220;42.716;23.306;2023-03-23T02:22:01;16.80;;;10.00;;
20118;SDS011;10220;42.716;23.306;2023-03-23T02:24:53;18.07;;;8.73;;
20118;SDS011;10220;42.716;23.306;2023-03-23T02:27:41;16.43;;;8.70;;
20118;SDS011;10220;42.716;23.306;2023-03-23T02:38:31;11.73;;;8.13;;
20118;SDS011;10220;42.716;23.306;2023-03-23T02:41:01;15.60;;;10.07;;
20118;SDS011;10220;42.716;23.306;2023-03-23T02:43:31;17.03;;;9.73;;
20118;SDS011;10220;42.716;23.306;2023-03-23T02:46:02;15.77;;;9.53;;
20118;SDS011;10220;42.716;23.306;2023-03-23T02:48:31;14.83;;;8.90;;
20118;SDS011;10220;42.716;23.306;2023-03-23T02:50:58;12.43;;;8.27;;
20118;SDS011;10220;42.716;23.306;2023-03-23T02:53:26;12.50;;;9.03;;
20118;SDS011;10220;42.716;23.306;2023-03-23T02:55:55;16.60;;;8.90;;
20118;SDS011;10220;42.716;23.306;2023-03-23T02:58:22;16.30;;;9.03;;
20118;SDS011;10220;42.716;23.306;2023-03-23T03:00:49;16.30;;;9.27;;
20118;SDS011;10220;42.716;23.306;2023-03-23T03:03:15;8.93;;;6.83;;
20118;SDS011;10220;42.716;23.306;2023-03-23T03:05:49;14.90;;;9.67;;
20118;SDS011;10220;42.716;23.306;2023-03-23T03:08:49;10.37;;;5.97;;
20118;SDS011;10220;42.716;23.306;2023-03-23T03:11:46;10.40;;;7.37;;
20118;SDS011;10220;42.716;23.306;2023-03-23T03:14:19;9.83;;;6.80;;
20118;SDS011;10220;42.716;23.306;2023-03-23T03:19:29;8.60;;;5.37;;
20118;SDS011;10220;42.716;23.306;2023-03-23T03:22:00;5.23;;;4.13;;
20118;SDS011;10220;42.716;23.306;2023-03-23T03:24:27;7.10;;;5.23;;
20118;SDS011;10220;42.716;23.306;2023-03-23T03:26:55;12.50;;;5.37;;
20118;SDS011;10220;42.716;23.306;2023-03-23T03:29:28;4.53;;;3.53;;
20118;SDS011;10220;42.716;23.306;2023-03-23T03:31:57;6.97;;;4.07;;
20118;SDS011;10220;42.716;23.306;2023-03-23T03:34:25;8.63;;;5.97;;
20118;SDS011;10220;42.716;23.306;2023-03-23T03:36:52;8.47;;;5.33;;
20118;SDS011;10220;42.716;23.306;2023-03-23T03:39:20;5.33;;;4.70;;
20118;SDS011;10220;42.716;23.306;2023-03-23T03:41:46;6.83;;;4.73;;
20118;SDS011;10220;42.716;23.306;2023-03-23T03:44:13;6.47;;;4.73;;
20118;SDS011;10220;42.716;23.306;2023-03-23T03:46:40;7.30;;;4.80;;
20118;SDS011;10220;42.716;23.306;2023-03-23T03:49:06;9.87;;;5.33;;
20118;SDS011;10220;42.716;23.306;2023-03-23T03:51:33;5.97;;;5.17;;
20118;SDS011;10220;42.716;23.306;2023-03-23T03:54:00;6.63;;;3.73;;
20118;SDS011;10220;42.716;23.306;2023-03-23T03:56:26;7.37;;;4.83;;
20118;SDS011;10220;42.716;23.306;2023-03-23T03:58:52;8.67;;;5.97;;
20118;SDS011;10220;42.716;23.306;2023-03-23T04:01:19;5.13;;;4.30;;
20118;SDS011;10220;42.716;23.306;2023-03-23T04:03:47;7.33;;;4.70;;
20118;SDS011;10220;42.716;23.306;2023-03-23T04:06:14;7.83;;;6.23;;
20118;SDS011;10220;42.716;23.306;2023-03-23T04:08:40;7.60;;;4.43;;
20118;SDS011;10220;42.716;23.306;2023-03-23T04:11:10;5.10;;;4.10;;
20118;SDS011;10220;42.716;23.306;2023-03-23T04:13:37;9.33;;;5.67;;
20118;SDS011;10220;42.716;23.306;2023-03-23T04:16:03;7.97;;;5.47;;
20118;SDS011;10220;42.716;23.306;2023-03-23T04:18:30;7.77;;;6.53;;
20118;SDS011;10220;42.716;23.306;2023-03-23T04:20:57;9.37;;;5.33;;
20118;SDS011;10220;42.716;23.306;2023-03-23T04:23:24;10.70;;;6.30;;
20118;SDS011;10220;42.716;23.306;2023-03-23T04:25:51;11.37;;;6.93;;
20118;SDS011;10220;42.716;23.306;2023-03-23T04:28:21;7.27;;;4.20;;
20118;SDS011;10220;42.716;23.306;2023-03-23T04:30:49;5.93;;;5.10;;
20118;SDS011;10220;42.716;23.306;2023-03-23T04:33:18;8.87;;;5.73;;
20118;SDS011;10220;42.716;23.306;2023-03-23T04:35:44;7.30;;;5.37;;
20118;SDS011;10220;42.716;23.306;2023-03-23T04:38:11;9.93;;;7.03;;
20118;SDS011;10220;42.716;23.306;2023-03-23T04:40:39;16.10;;;8.23;;
20118;SDS011;10220;42.716;23.306;2023-03-23T04:43:08;7.17;;;5.57;;
20118;SDS011;10220;42.716;23.306;2023-03-23T04:45:34;9.93;;;6.00;;
20118;SDS011;10220;42.716;23.306;2023-03-23T04:48:02;10.13;;;6.07;;
20118;SDS011;10220;42.716;23.306;2023-03-23T04:50:31;16.47;;;6.47;;
20118;SDS011;10220;42.716;23.306;2023-03-23T04:52:58;9.97;;;6.77;;
20118;SDS011;10220;42.716;23.306;2023-03-23T04:55:24;9.80;;;7.50;;
20118;SDS011;10220;42.716;23.306;2023-03-23T04:57:51;15.13;;;10.83;;
20118;SDS011;10220;42.716;23.306;2023-03-23T05:00:17;20.70;;;10.77;;
20118;SDS011;10220;42.716;23.306;2023-03-23T05:02:44;23.73;;;12.73;;
20118;SDS011;10220;42.716;23.306;2023-03-23T05:05:12;14.17;;;10.10;;
20118;SDS011;10220;42.716;23.306;2023-03-23T05:07:39;10.60;;;8.47;;
20118;SDS011;10220;42.716;23.306;2023-03-23T05:10:05;9.63;;;7.17;;
20118;SDS011;10220;42.716;23.306;2023-03-23T05:12:32;16.07;;;9.33;;
20118;SDS011;10220;42.716;23.306;2023-03-23T05:14:58;11.73;;;7.13;;
20118;SDS011;10220;42.716;23.306;2023-03-23T05:17:24;12.37;;;8.33;;
20118;SDS011;10220;42.716;23.306;2023-03-23T05:19:52;7.80;;;6.80;;
20118;SDS011;10220;42.716;23.306;2023-03-23T05:22:18;10.83;;;9.73;;
20118;SDS011;10220;42.716;23.306;2023-03-23T05:24:45;17.87;;;10.47;;
20118;SDS011;10220;42.716;23.306;2023-03-23T05:27:11;13.77;;;9.57;;
20118;SDS011;10220;42.716;23.306;2023-03-23T05:29:37;16.13;;;8.53;;
20118;SDS011;10220;42.716;23.306;2023-03-23T05:32:06;12.80;;;8.80;;
20118;SDS011;10220;42.716;23.306;2023-03-23T05:34:32;8.63;;;7.73;;
20118;SDS011;10220;42.716;23.306;2023-03-23T05:36:59;10.00;;;7.40;;
20118;SDS011;10220;42.716;23.306;2023-03-23T05:39:25;13.53;;;9.80;;
20118;SDS011;10220;42.716;23.306;2023-03-23T05:41:51;14.03;;;9.43;;
20118;SDS011;10220;42.716;23.306;2023-03-23T05:44:17;15.03;;;10.37;;
20118;SDS011;10220;42.716;23.306;2023-03-23T05:46:43;14.37;;;10.17;;
20118;SDS011;10220;42.716;23.306;2023-03-23T05:49:08;12.97;;;7.33;;
20118;SDS011;10220;42.716;23.306;2023-03-23T05:51:34;9.23;;;7.53;;
20118;SDS011;10220;42.716;23.306;2023-03-23T05:54:00;13.70;;;9.77;;
20118;SDS011;10220;42.716;23.306;2023-03-23T05:56:26;14.27;;;9.67;;
20118;SDS011;10220;42.716;23.306;2023-03-23T05:58:53;12.23;;;8.23;;
20118;SDS011;10220;42.716;23.306;2023-03-23T06:01:19;14.70;;;6.27;;
20118;SDS011;10220;42.716;23.306;2023-03-23T06:03:45;15.07;;;9.50;;
20118;SDS011;10220;42.716;23.306;2023-03-23T06:06:10;11.43;;;8.27;;
20118;SDS011;10220;42.716;23.306;2023-03-23T06:08:36;14.07;;;10.27;;
20118;SDS011;10220;42.716;23.306;2023-03-23T06:11:02;15.50;;;9.67;;
20118;SDS011;10220;42.716;23.306;2023-03-23T06:13:29;15.07;;;9.67;;
20118;SDS011;10220;42.716;23.306;2023-03-23T06:15:55;14.57;;;9.43;;
20118;SDS011;10220;42.716;23.306;2023-03-23T06:18:24;20.70;;;13.17;;
20118;SDS011;10220;42.716;23.306;2023-03-23T06:20:50;21.40;;;12.57;;
20118;SDS011;10220;42.716;23.306;2023-03-23T06:23:16;20.47;;;12.33;;
20118;SDS011;10220;42.716;23.306;2023-03-23T06:25:42;24.47;;;14.40;;
20118;SDS011;10220;42.716;23.306;2023-03-23T06:28:09;28.53;;;13.23;;
20118;SDS011;10220;42.716;23.306;2023-03-23T06:30:35;25.73;;;14.70;;
20118;SDS011;10220;42.716;23.306;2023-03-23T06:33:01;25.97;;;12.77;;
20118;SDS011;10220;42.716;23.306;2023-03-23T06:35:30;26.63;;;13.03;;
20118;SDS011;10220;42.716;23.306;2023-03-23T06:37:57;18.83;;;11.20;;
20118;SDS011;10220;42.716;23.306;2023-03-23T06:40:26;24.07;;;12.60;;
20118;SDS011;10220;42.716;23.306;2023-03-23T06:42:53;17.17;;;10.77;;
20118;SDS011;10220;42.716;23.306;2023-03-23T06:45:18;26.10;;;12.80;;
20118;SDS011;10220;42.716;23.306;2023-03-23T06:47:44;27.40;;;12.30;;
20118;SDS011;10220;42.716;23.306;2023-03-23T06:50:14;21.63;;;11.33;;
20118;SDS011;10220;42.716;23.306;2023-03-23T06:52:40;24.10;;;12.00;;
20118;SDS011;10220;42.716;23.306;2023-03-23T06:55:06;21.60;;;11.98;;
20118;SDS011;10220;42.716;23.306;2023-03-23T06:57:32;25.05;;;13.18;;
20118;SDS011;10220;42.716;23.306;2023-03-23T06:59:57;24.10;;;12.48;;
20118;SDS011;10220;42.716;23.306;2023-03-23T07:02:23;21.83;;;12.20;;
20118;SDS011;10220;42.716;23.306;2023-03-23T07:04:48;21.73;;;11.38;;
20118;SDS011;10220;42.716;23.306;2023-03-23T07:07:14;19.50;;;11.38;;
20118;SDS011;10220;42.716;23.306;2023-03-23T07:09:43;19.83;;;11.20;;
20118;SDS011;10220;42.716;23.306;2023-03-23T07:12:09;18.25;;;11.13;;
20118;SDS011;10220;42.716;23.306;2023-03-23T07:14:35;22.10;;;11.90;;
20118;SDS011;10220;42.716;23.306;2023-03-23T07:17:00;20.25;;;11.27;;
20118;SDS011;10220;42.716;23.306;2023-03-23T07:19:28;22.88;;;11.05;;
20118;SDS011;10220;42.716;23.306;2023-03-23T07:21:53;17.08;;;10.25;;
20118;SDS011;10220;42.716;23.306;2023-03-23T07:24:19;17.65;;;10.38;;
20118;SDS011;10220;42.716;23.306;2023-03-23T07:26:44;20.15;;;9.65;;
20118;SDS011;10220;42.716;23.306;2023-03-23T07:29:10;18.05;;;10.35;;
20118;SDS011;10220;42.716;23.306;2023-03-23T07:31:35;20.73;;;9.57;;
20118;SDS011;10220;42.716;23.306;2023-03-23T07:34:01;18.00;;;9.15;;
20118;SDS011;10220;42.716;23.306;2023-03-23T07:36:27;16.52;;;9.27;;
20118;SDS011;10220;42.716;23.306;2023-03-23T07:38:53;15.68;;;9.55;;
20118;SDS011;10220;42.716;23.306;2023-03-23T07:41:19;17.02;;;9.57;;
20118;SDS011;10220;42.716;23.306;2023-03-23T07:43:45;19.00;;;10.48;;
20118;SDS011;10220;42.716;23.306;2023-03-23T07:46:11;15.95;;;10.38;;
20118;SDS011;10220;42.716;23.306;2023-03-23T07:48:37;20.70;;;11.88;;
20118;SDS011;10220;42.716;23.306;2023-03-23T07:51:03;23.15;;;11.93;;
20118;SDS011;10220;42.716;23.306;2023-03-23T07:53:29;25.55;;;11.30;;
20118;SDS011;10220;42.716;23.306;2023-03-23T07:55:55;19.38;;;11.85;;
20118;SDS011;10220;42.716;23.306;2023-03-23T07:58:20;22.98;;;12.60;;
20118;SDS011;10220;42.716;23.306;2023-03-23T08:00:46;20.33;;;11.80;;
20118;SDS011;10220;42.716;23.306;2023-03-23T08:03:13;22.73;;;12.35;;
20118;SDS011;10220;42.716;23.306;2023-03-23T08:05:40;20.50;;;11.13;;
20118;SDS011;10220;42.716;23.306;2023-03-23T08:08:07;25.02;;;12.20;;
20118;SDS011;10220;42.716;23.306;2023-03-23T08:10:34;28.70;;;13.43;;
20118;SDS011;10220;42.716;23.306;2023-03-23T08:13:00;23.75;;;13.05;;
20118;SDS011;10220;42.716;23.306;2023-03-23T08:15:26;23.77;;;12.30;;
20118;SDS011;10220;42.716;23.306;2023-03-23T08:17:53;23.38;;;12.07;;
20118;SDS011;10220;42.716;23.306;2023-03-23T08:20:19;18.45;;;11.20;;
20118;SDS011;10220;42.716;23.306;2023-03-23T08:22:48;19.65;;;10.93;;
20118;SDS011;10220;42.716;23.306;2023-03-23T08:25:17;18.92;;;11.48;;
20118;SDS011;10220;42.716;23.306;2023-03-23T08:27:43;24.23;;;10.80;;
20118;SDS011;10220;42.716;23.306;2023-03-23T08:30:13;13.38;;;9.82;;
20118;SDS011;10220;42.716;23.306;2023-03-23T08:32:44;17.83;;;9.15;;
20118;SDS011;10220;42.716;23.306;2023-03-23T08:35:11;14.65;;;9.52;;
20118;SDS011;10220;42.716;23.306;2023-03-23T08:37:37;13.88;;;7.40;;
20118;SDS011;10220;42.716;23.306;2023-03-23T08:40:04;12.68;;;7.65;;
20118;SDS011;10220;42.716;23.306;2023-03-23T08:42:34;15.20;;;8.50;;
20118;SDS011;10220;42.716;23.306;2023-03-23T08:45:02;17.15;;;8.93;;
20118;SDS011;10220;42.716;23.306;2023-03-23T08:47:32;14.63;;;8.90;;
20118;SDS011;10220;42.716;23.306;2023-03-23T08:49:58;9.90;;;5.53;;
20118;SDS011;10220;42.716;23.306;2023-03-23T08:52:24;11.15;;;6.03;;
20118;SDS011;10220;42.716;23.306;2023-03-23T08:54:49;9.10;;;5.97;;
20118;SDS011;10220;42.716;23.306;2023-03-23T08:57:15;9.90;;;5.57;;
20118;SDS011;10220;42.716;23.306;2023-03-23T08:59:41;11.30;;;5.30;;
20118;SDS011;10220;42.716;23.306;2023-03-23T09:02:10;8.63;;;6.03;;
20118;SDS011;10220;42.716;23.306;2023-03-23T09:04:37;9.43;;;5.82;;
20118;SDS011;10220;42.716;23.306;2023-03-23T09:07:04;7.32;;;5.03;;
20118;SDS011;10220;42.716;23.306;2023-03-23T09:09:29;12.43;;;5.30;;
20118;SDS011;10220;42.716;23.306;2023-03-23T09:11:55;7.95;;;5.32;;
20118;SDS011;10220;42.716;23.306;2023-03-23T09:14:20;7.90;;;4.78;;
20118;SDS011;10220;42.716;23.306;2023-03-23T09:16:46;5.15;;;3.38;;
20118;SDS011;10220;42.716;23.306;2023-03-23T09:19:11;5.85;;;4.25;;
20118;SDS011;10220;42.716;23.306;2023-03-23T09:21:37;8.32;;;4.18;;
20118;SDS011;10220;42.716;23.306;2023-03-23T09:24:03;6.20;;;4.00;;
20118;SDS011;10220;42.716;23.306;2023-03-23T09:26:30;6.80;;;4.75;;
20118;SDS011;10220;42.716;23.306;2023-03-23T09:28:56;6.47;;;4.53;;
20118;SDS011;10220;42.716;23.306;2023-03-23T09:31:23;8.15;;;4.55;;
20118;SDS011;10220;42.716;23.306;2023-03-23T09:33:51;11.88;;;4.57;;
20118;SDS011;10220;42.716;23.306;2023-03-23T09:36:17;5.60;;;4.43;;
20118;SDS011;10220;42.716;23.306;2023-03-23T09:38:46;7.28;;;4.43;;
20118;SDS011;10220;42.716;23.306;2023-03-23T09:44:21;9.02;;;4.68;;
20118;SDS011;10220;42.716;23.306;2023-03-23T09:49:40;11.93;;;4.35;;
20118;SDS011;10220;42.716;23.306;2023-03-23T09:52:14;5.15;;;3.60;;
20118;SDS011;10220;42.716;23.306;2023-03-23T09:54:42;6.55;;;4.30;;
20118;SDS011;10220;42.716;23.306;2023-03-23T09:57:27;6.72;;;3.88;;
20118;SDS011;10220;42.716;23.306;2023-03-23T10:00:01;5.78;;;3.60;;
20118;SDS011;10220;42.716;23.306;2023-03-23T10:02:32;7.00;;;3.90;;
20118;SDS011;10220;42.716;23.306;2023-03-23T10:05:18;5.65;;;3.95;;
20118;SDS011;10220;42.716;23.306;2023-03-23T10:07:54;6.63;;;3.83;;
20118;SDS011;10220;42.716;23.306;2023-03-23T10:10:21;4.95;;;3.95;;
20118;SDS011;10220;42.716;23.306;2023-03-23T10:12:56;5.68;;;3.88;;
20118;SDS011;10220;42.716;23.306;2023-03-23T10:15:29;5.22;;;3.47;;
20118;SDS011;10220;42.716;23.306;2023-03-23T10:18:02;7.97;;;3.97;;
20118;SDS011;10220;42.716;23.306;2023-03-23T10:20:37;6.55;;;3.58;;
20118;SDS011;10220;42.716;23.306;2023-03-23T10:23:12;7.68;;;3.72;;
20118;SDS011;10220;42.716;23.306;2023-03-23T10:28:34;3.55;;;2.95;;
20118;SDS011;10220;42.716;23.306;2023-03-23T10:31:02;6.78;;;3.58;;
20118;SDS011;10220;42.716;23.306;2023-03-23T10:33:29;5.80;;;3.90;;
20118;SDS011;10220;42.716;23.306;2023-03-23T10:41:37;6.50;;;3.97;;
20118;SDS011;10220;42.716;23.306;2023-03-23T10:44:10;6.63;;;3.75;;
20118;SDS011;10220;42.716;23.306;2023-03-23T10:49:08;4.75;;;4.05;;
20118;SDS011;10220;42.716;23.306;2023-03-23T10:51:40;7.22;;;4.43;;
20118;SDS011;10220;42.716;23.306;2023-03-23T10:54:08;6.05;;;3.50;;
20118;SDS011;10220;42.716;23.306;2023-03-23T10:59:13;5.72;;;4.00;;
20118;SDS011;10220;42.716;23.306;2023-03-23T11:02:00;6.30;;;4.20;;
20118;SDS011;10220;42.716;23.306;2023-03-23T11:04:28;7.68;;;4.15;;
20118;SDS011;10220;42.716;23.306;2023-03-23T11:06:59;5.70;;;3.63;;
20118;SDS011;10220;42.716;23.306;2023-03-23T11:09:37;4.68;;;3.63;;
20118;SDS011;10220;42.716;23.306;2023-03-23T11:12:04;7.25;;;3.97;;
20118;SDS011;10220;42.716;23.306;2023-03-23T11:14:40;5.38;;;3.65;;
20118;SDS011;10220;42.716;23.306;2023-03-23T11:17:20;6.90;;;3.92;;
20118;SDS011;10220;42.716;23.306;2023-03-23T11:19:49;6.28;;;3.60;;
20118;SDS011;10220;42.716;23.306;2023-03-23T11:22:18;5.45;;;3.35;;
20118;SDS011;10220;42.716;23.306;2023-03-23T11:24:53;4.70;;;3.17;;
20118;SDS011;10220;42.716;23.306;2023-03-23T11:27:21;6.45;;;3.28;;
20118;SDS011;10220;42.716;23.306;2023-03-23T11:32:14;4.57;;;3.60;;
20118;SDS011;10220;42.716;23.306;2023-03-23T11:34:41;4.80;;;3.47;;
20118;SDS011;10220;42.716;23.306;2023-03-23T11:39:58;6.47;;;3.67;;
20118;SDS011;10220;42.716;23.306;2023-03-23T11:45:20;7.60;;;3.70;;
20118;SDS011;10220;42.716;23.306;2023-03-23T11:58:34;3.83;;;3.45;;
20118;SDS011;10220;42.716;23.306;2023-03-23T12:26:09;3.95;;;2.63;;
20118;SDS011;10220;42.716;23.306;2023-03-23T12:31:17;3.67;;;3.00;;
20118;SDS011;10220;42.716;23.306;2023-03-23T12:34:06;4.53;;;3.45;;
20118;SDS011;10220;42.716;23.306;2023-03-23T12:37:08;5.60;;;3.67;;
20118;SDS011;10220;42.716;23.306;2023-03-23T12:39:55;6.57;;;3.15;;
20118;SDS011;10220;42.716;23.306;2023-03-23T12:52:47;4.18;;;3.28;;
20118;SDS011;10220;42.716;23.306;2023-03-23T12:58:37;7.22;;;3.40;;
20118;SDS011;10220;42.716;23.306;2023-03-23T13:06:04;5.30;;;3.30;;
20118;SDS011;10220;42.716;23.306;2023-03-23T13:08:44;3.20;;;2.90;;
20118;SDS011;10220;42.716;23.306;2023-03-23T13:11:20;4.85;;;3.08;;
20118;SDS011;10220;42.716;23.306;2023-03-23T13:13:51;2.80;;;2.42;;
20118;SDS011;10220;42.716;23.306;2023-03-23T13:16:33;4.57;;;2.83;;
20118;SDS011;10220;42.716;23.306;2023-03-23T13:24:23;3.63;;;3.00;;
20118;SDS011;10220;42.716;23.306;2023-03-23T13:26:50;4.38;;;3.13;;
20118;SDS011;10220;42.716;23.306;2023-03-23T13:29:20;4.53;;;3.08;;
20118;SDS011;10220;42.716;23.306;2023-03-23T13:31:49;5.13;;;3.38;;
20118;SDS011;10220;42.716;23.306;2023-03-23T13:39:24;6.72;;;3.45;;
20118;SDS011;10220;42.716;23.306;2023-03-23T13:49:56;3.45;;;2.38;;
20118;SDS011;10220;42.716;23.306;2023-03-23T13:52:37;5.40;;;3.35;;
20118;SDS011;10220;42.716;23.306;2023-03-23T13:58:10;6.95;;;3.08;;
20118;SDS011;10220;42.716;23.306;2023-03-23T14:00:47;3.22;;;2.70;;
20118;SDS011;10220;42.716;23.306;2023-03-23T14:08:35;3.70;;;2.92;;
20118;SDS011;10220;42.716;23.306;2023-03-23T14:16:32;3.88;;;3.03;;
20118;SDS011;10220;42.716;23.306;2023-03-23T14:21:56;4.13;;;3.00;;
20118;SDS011;10220;42.716;23.306;2023-03-23T14:24:28;3.90;;;3.00;;
20118;SDS011;10220;42.716;23.306;2023-03-23T14:29:34;3.22;;;2.75;;
20118;SDS011;10220;42.716;23.306;2023-03-23T14:31:59;4.50;;;3.47;;
20118;SDS011;10220;42.716;23.306;2023-03-23T14:34:26;4.20;;;2.95;;
20118;SDS011;10220;42.716;23.306;2023-03-23T14:36:54;3.65;;;2.90;;
20118;SDS011;10220;42.716;23.306;2023-03-23T14:39:30;6.30;;;3.13;;
20118;SDS011;10220;42.716;23.306;2023-03-23T14:42:01;5.00;;;3.60;;
20118;SDS011;10220;42.716;23.306;2023-03-23T14:44:50;6.15;;;3.63;;
20118;SDS011;10220;42.716;23.306;2023-03-23T14:47:20;5.35;;;3.08;;
20118;SDS011;10220;42.716;23.306;2023-03-23T14:49:46;5.85;;;3.20;;
20118;SDS011;10220;42.716;23.306;2023-03-23T14:52:13;6.55;;;3.38;;
20118;SDS011;10220;42.716;23.306;2023-03-23T14:54:40;3.17;;;2.60;;
20118;SDS011;10220;42.716;23.306;2023-03-23T14:57:27;6.05;;;3.35;;
20118;SDS011;10220;42.716;23.306;2023-03-23T14:59:54;5.35;;;2.72;;
20118;SDS011;10220;42.716;23.306;2023-03-23T15:02:34;7.53;;;3.55;;
20118;SDS011;10220;42.716;23.306;2023-03-23T15:05:26;4.03;;;2.65;;
20118;SDS011;10220;42.716;23.306;2023-03-23T15:08:05;4.75;;;3.35;;
20118;SDS011;10220;42.716;23.306;2023-03-23T15:10:36;3.90;;;3.15;;
20118;SDS011;10220;42.716;23.306;2023-03-23T15:13:02;3.22;;;2.60;;
20118;SDS011;10220;42.716;23.306;2023-03-23T15:15:29;5.03;;;3.45;;
20118;SDS011;10220;42.716;23.306;2023-03-23T15:17:59;4.88;;;3.08;;
20118;SDS011;10220;42.716;23.306;2023-03-23T15:22:51;4.57;;;3.45;;
20118;SDS011;10220;42.716;23.306;2023-03-23T15:27:55;4.85;;;3.17;;
20118;SDS011;10220;42.716;23.306;2023-03-23T15:32:47;4.22;;;2.60;;
20118;SDS011;10220;42.716;23.306;2023-03-23T15:35:17;5.25;;;2.78;;
20118;SDS011;10220;42.716;23.306;2023-03-23T15:40:34;4.63;;;3.38;;
20118;SDS011;10220;42.716;23.306;2023-03-23T15:43:35;5.80;;;3.00;;
20118;SDS011;10220;42.716;23.306;2023-03-23T15:46:01;5.30;;;2.92;;
20118;SDS011;10220;42.716;23.306;2023-03-23T15:48:33;5.47;;;3.05;;
20118;SDS011;10220;42.716;23.306;2023-03-23T15:51:11;4.72;;;3.20;;
20118;SDS011;10220;42.716;23.306;2023-03-23T15:53:38;4.80;;;2.85;;
20118;SDS011;10220;42.716;23.306;2023-03-23T15:56:05;6.18;;;3.83;;
20118;SDS011;10220;42.716;23.306;2023-03-23T15:58:32;6.13;;;3.15;;
20118;SDS011;10220;42.716;23.306;2023-03-23T16:00:59;3.72;;;3.17;;
20118;SDS011;10220;42.716;23.306;2023-03-23T16:03:51;5.60;;;3.25;;
20118;SDS011;10220;42.716;23.306;2023-03-23T16:06:23;8.27;;;4.28;;
20118;SDS011;10220;42.716;23.306;2023-03-23T16:08:50;7.88;;;3.30;;
20118;SDS011;10220;42.716;23.306;2023-03-23T16:11:18;5.18;;;2.90;;
20118;SDS011;10220;42.716;23.306;2023-03-23T16:13:44;4.78;;;3.15;;
20118;SDS011;10220;42.716;23.306;2023-03-23T16:16:52;5.30;;;3.35;;
20118;SDS011;10220;42.716;23.306;2023-03-23T16:19:00;4.93;;;3.15;;
20118;SDS011;10220;42.716;23.306;2023-03-23T16:21:26;5.30;;;3.47;;
20118;SDS011;10220;42.716;23.306;2023-03-23T16:23:51;8.60;;;3.45;;
20118;SDS011;10220;42.716;23.306;2023-03-23T16:26:17;5.13;;;3.42;;
20118;SDS011;10220;42.716;23.306;2023-03-23T16:28:43;4.72;;;3.42;;
20118;SDS011;10220;42.716;23.306;2023-03-23T16:31:09;5.28;;;3.67;;
20118;SDS011;10220;42.716;23.306;2023-03-23T16:33:34;6.72;;;3.78;;
20118;SDS011;10220;42.716;23.306;2023-03-23T16:36:00;3.35;;;3.03;;
20118;SDS011;10220;42.716;23.306;2023-03-23T16:38:25;5.38;;;3.10;;
20118;SDS011;10220;42.716;23.306;2023-03-23T16:40:51;4.30;;;3.15;;
20118;SDS011;10220;42.716;23.306;2023-03-23T16:43:16;6.57;;;3.58;;
20118;SDS011;10220;42.716;23.306;2023-03-23T16:45:43;7.85;;;3.55;;
20118;SDS011;10220;42.716;23.306;2023-03-23T16:48:10;4.85;;;3.60;;
20118;SDS011;10220;42.716;23.306;2023-03-23T16:50:37;5.28;;;3.65;;
20118;SDS011;10220;42.716;23.306;2023-03-23T16:53:03;7.45;;;3.83;;
20118;SDS011;10220;42.716;23.306;2023-03-23T16:55:32;7.20;;;4.20;;
20118;SDS011;10220;42.716;23.306;2023-03-23T16:57:58;9.98;;;4.55;;
20118;SDS011;10220;42.716;23.306;2023-03-23T17:00:24;6.07;;;4.20;;
20118;SDS011;10220;42.716;23.306;2023-03-23T17:02:51;12.77;;;6.22;;